createdAt,value
2018-03-07T00:00:49.538Z,-0.10
2018-03-07T00:03:17.162Z,-0.20
2018-03-07T00:05:44.746Z,-0.10
2018-03-07T00:08:12.334Z,-0.10
2018-03-07T00:10:39.914Z,-0.10
2018-03-07T00:13:08.262Z,-0.10
2018-03-07T00:15:35.842Z,-0.20
2018-03-07T00:18:03.430Z,-0.10
2018-03-07T00:20:31.786Z,-0.10
2018-03-07T00:22:59.415Z,-0.20
2018-03-07T00:25:27.002Z,-0.10
2018-03-07T00:27:54.634Z,-0.10
2018-03-07T00:30:22.217Z,-0.10
2018-03-07T00:32:49.809Z,-0.10
2018-03-07T00:35:17.394Z,-0.10
2018-03-07T00:37:45.750Z,-0.20
2018-03-07T00:40:13.334Z,-0.20
2018-03-07T00:42:40.978Z,-0.20
2018-03-07T00:45:08.567Z,-0.20
2018-03-07T00:47:36.155Z,-0.20
2018-03-07T00:50:04.502Z,-0.20
2018-03-07T00:52:32.094Z,-0.20
2018-03-07T00:55:00.447Z,-0.20
2018-03-07T00:57:28.030Z,-0.20
2018-03-07T00:59:56.382Z,-0.20
2018-03-07T01:02:23.986Z,-0.20
2018-03-07T01:04:52.337Z,-0.10
2018-03-07T01:07:19.922Z,-0.20
2018-03-07T01:09:47.590Z,-0.10
2018-03-07T01:12:15.938Z,-0.20
2018-03-07T01:14:43.523Z,-0.20
2018-03-07T01:17:11.111Z,-0.20
2018-03-07T01:19:39.458Z,-0.10
2018-03-07T01:22:07.043Z,-0.20
2018-03-07T01:24:34.626Z,-0.20
2018-03-07T01:27:02.974Z,-0.10
2018-03-07T01:29:30.554Z,-0.20
2018-03-07T01:31:58.134Z,-0.10
2018-03-07T01:34:26.478Z,-0.10
2018-03-07T01:36:54.062Z,-0.20
2018-03-07T01:39:21.671Z,-0.10
2018-03-07T01:41:49.303Z,-0.10
2018-03-07T01:44:17.650Z,-0.10
2018-03-07T01:46:45.234Z,-0.20
2018-03-07T01:49:12.862Z,-0.10
2018-03-07T01:51:52.283Z,-0.10
2018-03-07T01:54:19.871Z,-0.10
2018-03-07T01:56:47.463Z,-0.10
2018-03-07T01:59:15.050Z,-0.20
2018-03-07T02:01:43.404Z,-0.10
2018-03-07T02:04:10.986Z,-0.20
2018-03-07T02:06:38.571Z,-0.10
2018-03-07T02:09:06.927Z,-0.20
2018-03-07T02:11:34.511Z,-0.20
2018-03-07T02:14:02.875Z,-0.20
2018-03-07T02:16:30.458Z,-0.20
2018-03-07T02:18:58.810Z,-0.20
2018-03-07T02:21:26.391Z,-0.20
2018-03-07T02:23:53.980Z,-0.20
2018-03-07T02:26:21.567Z,-0.20
2018-03-07T02:28:49.154Z,-0.10
2018-03-07T02:31:16.740Z,-0.10
2018-03-07T02:33:44.336Z,-0.20
2018-03-07T02:36:23.718Z,-0.20
2018-03-07T02:38:52.077Z,-0.20
2018-03-07T02:41:19.659Z,-0.20
2018-03-07T02:43:47.243Z,-0.10
2018-03-07T02:46:14.846Z,-0.20
2018-03-07T02:48:43.265Z,-0.20
2018-03-07T02:51:10.847Z,-0.20
2018-03-07T02:53:38.431Z,-0.20
2018-03-07T02:56:06.018Z,-0.20
2018-03-07T02:58:34.366Z,-0.20
2018-03-07T03:01:01.942Z,-0.20
2018-03-07T03:03:29.571Z,-0.20
2018-03-07T03:05:57.159Z,-0.20
2018-03-07T03:08:24.746Z,-0.20
2018-03-07T03:10:52.326Z,-0.20
2018-03-07T03:13:20.675Z,-0.20
2018-03-07T03:15:48.259Z,-0.30
2018-03-07T03:18:16.610Z,-0.20
2018-03-07T03:20:44.190Z,-0.30
2018-03-07T03:23:11.778Z,-0.20
2018-03-07T03:25:40.130Z,-0.20
2018-03-07T03:28:07.714Z,-0.30
2018-03-07T03:30:35.300Z,-0.20
2018-03-07T03:33:03.646Z,-0.20
2018-03-07T03:35:31.235Z,-0.30
2018-03-07T03:37:59.591Z,-0.20
2018-03-07T03:40:27.170Z,-0.30
2018-03-07T03:42:54.755Z,-0.20
2018-03-07T03:45:23.155Z,-0.30
2018-03-07T03:47:50.744Z,-0.30
2018-03-07T03:50:18.330Z,-0.20
2018-03-07T03:52:45.914Z,-0.30
2018-03-07T03:55:13.502Z,-0.30
2018-03-07T03:57:41.082Z,-0.30
2018-03-07T04:00:08.675Z,-0.30
2018-03-07T04:02:36.323Z,-0.30
2018-03-07T04:05:03.924Z,-0.20
2018-03-07T04:07:31.511Z,-0.30
2018-03-07T04:12:33.758Z,-0.30
2018-03-07T04:15:01.344Z,-0.30
2018-03-07T04:17:28.930Z,-0.30
2018-03-07T04:19:57.279Z,-0.30
2018-03-07T04:22:24.867Z,-0.30
2018-03-07T04:24:52.455Z,-0.30
2018-03-07T04:27:20.803Z,-0.30
2018-03-07T04:29:48.386Z,-0.30
2018-03-07T04:32:16.730Z,-0.30
2018-03-07T04:34:44.310Z,-0.30
2018-03-07T04:37:11.896Z,-0.30
2018-03-07T04:39:40.314Z,-0.30
2018-03-07T04:42:08.081Z,-0.40
2018-03-07T04:44:35.667Z,-0.30
2018-03-07T04:47:03.258Z,-0.30
2018-03-07T04:49:30.843Z,-0.30
2018-03-07T04:51:59.196Z,-0.30
2018-03-07T04:54:26.783Z,-0.40
2018-03-07T04:56:54.374Z,-0.30
2018-03-07T04:59:21.994Z,-0.30
2018-03-07T05:01:49.577Z,-0.30
2018-03-07T05:04:17.166Z,-0.30
2018-03-07T05:06:45.514Z,-0.30
2018-03-07T05:09:13.995Z,-0.30
2018-03-07T05:11:41.583Z,-0.30
2018-03-07T05:14:09.939Z,-0.30
2018-03-07T05:16:37.527Z,-0.30
2018-03-07T05:19:05.170Z,-0.30
2018-03-07T05:21:32.754Z,-0.30
2018-03-07T05:24:00.342Z,-0.30
2018-03-07T05:26:28.694Z,-0.30
2018-03-07T05:28:56.275Z,-0.40
2018-03-07T05:31:24.630Z,-0.30
2018-03-07T05:33:52.224Z,-0.40
2018-03-07T05:36:20.578Z,-0.30
2018-03-07T05:38:48.157Z,-0.40
2018-03-07T05:41:15.751Z,-0.30
2018-03-07T05:43:43.335Z,-0.30
2018-03-07T05:46:10.919Z,-0.30
2018-03-07T05:48:38.503Z,-0.30
2018-03-07T05:51:06.095Z,-0.30
2018-03-07T05:53:34.450Z,-0.30
2018-03-07T05:56:02.045Z,-0.30
2018-03-07T05:58:30.398Z,-0.30
2018-03-07T06:00:57.982Z,-0.30
2018-03-07T06:03:25.610Z,-0.20
2018-03-07T06:05:53.194Z,-0.20
2018-03-07T06:08:20.787Z,-0.20
2018-03-07T06:10:49.139Z,-0.20
2018-03-07T06:13:16.726Z,-0.20
2018-03-07T06:15:45.082Z,-0.10
2018-03-07T06:18:12.699Z,-0.10
2018-03-07T06:20:40.283Z,0.00
2018-03-07T06:23:07.874Z,0.00
2018-03-07T06:25:36.224Z,0.10
2018-03-07T06:28:03.805Z,0.10
2018-03-07T06:30:31.381Z,0.20
2018-03-07T06:32:58.966Z,0.30
2018-03-07T06:35:26.550Z,0.30
2018-03-07T06:37:54.900Z,0.40
2018-03-07T06:40:22.480Z,0.40
2018-03-07T06:42:50.063Z,0.50
2018-03-07T06:45:18.439Z,0.60
2018-03-07T06:47:46.803Z,0.60
2018-03-07T06:50:14.398Z,0.50
2018-03-07T06:52:41.991Z,0.60
2018-03-07T06:55:09.574Z,0.50
2018-03-07T06:57:37.157Z,0.60
2018-03-07T07:00:04.782Z,0.40
2018-03-07T07:02:32.362Z,0.50
2018-03-07T07:04:59.969Z,0.60
2018-03-07T07:07:27.547Z,0.60
2018-03-07T07:09:55.894Z,0.70
2018-03-07T07:12:23.523Z,0.70
2018-03-07T07:14:51.098Z,0.70
2018-03-07T07:17:18.721Z,0.80
2018-03-07T07:19:47.071Z,0.70
2018-03-07T07:22:15.415Z,0.70
2018-03-07T07:24:42.994Z,0.70
2018-03-07T07:27:10.575Z,0.70
2018-03-07T07:29:38.158Z,0.80
2018-03-07T07:32:05.737Z,0.90
2018-03-07T07:34:34.084Z,1.00
2018-03-07T07:37:01.663Z,0.90
2018-03-07T07:39:29.247Z,1.00
2018-03-07T07:41:57.595Z,1.10
2018-03-07T07:44:25.203Z,1.10
2018-03-07T07:46:53.551Z,1.30
2018-03-07T07:49:21.967Z,1.30
2018-03-07T07:51:50.314Z,1.50
2018-03-07T07:54:17.895Z,1.50
2018-03-07T07:56:45.475Z,1.70
2018-03-07T07:59:13.827Z,1.60
2018-03-07T08:01:41.415Z,1.50
2018-03-07T08:04:08.995Z,1.70
2018-03-07T08:06:37.344Z,2.00
2018-03-07T08:09:04.951Z,1.90
2018-03-07T08:11:32.530Z,2.10
2018-03-07T08:14:00.110Z,2.30
2018-03-07T08:16:27.738Z,2.30
2018-03-07T08:18:56.126Z,2.40
2018-03-07T08:21:23.711Z,2.30
2018-03-07T08:23:51.294Z,2.30
2018-03-07T08:26:18.918Z,2.20
2018-03-07T08:28:47.267Z,2.00
2018-03-07T08:31:14.850Z,1.90
2018-03-07T08:33:43.195Z,2.00
2018-03-07T08:36:11.539Z,2.00
2018-03-07T08:38:39.144Z,1.90
2018-03-07T08:41:06.727Z,1.90
2018-03-07T08:43:35.122Z,2.00
2018-03-07T08:46:02.759Z,2.00
2018-03-07T08:48:30.322Z,2.00
2018-03-07T08:50:57.906Z,1.90
2018-03-07T08:53:25.491Z,1.90
2018-03-07T08:55:53.834Z,1.80
2018-03-07T08:58:21.417Z,1.80
2018-03-07T09:00:49.000Z,1.80
2018-03-07T09:03:17.354Z,1.70
2018-03-07T09:05:44.932Z,1.60
2018-03-07T09:08:12.511Z,1.70
2018-03-07T09:10:40.855Z,1.70
2018-03-07T09:13:08.444Z,1.70
2018-03-07T09:15:36.030Z,1.80
2018-03-07T09:18:04.379Z,1.80
2018-03-07T09:20:31.958Z,1.80
2018-03-07T09:22:59.538Z,1.90
2018-03-07T09:25:27.883Z,2.10
2018-03-07T09:27:55.466Z,2.10
2018-03-07T09:30:23.049Z,2.30
2018-03-07T09:32:51.426Z,2.10
2018-03-07T09:35:19.770Z,2.30
2018-03-07T09:37:47.354Z,2.20
2018-03-07T09:40:14.938Z,2.30
2018-03-07T09:42:43.287Z,2.50
2018-03-07T09:45:10.909Z,2.40
2018-03-07T09:47:38.488Z,2.60
2018-03-07T09:50:06.073Z,2.60
2018-03-07T09:52:33.651Z,2.80
2018-03-07T09:55:01.227Z,2.90
2018-03-07T09:57:28.815Z,2.90
2018-03-07T09:59:57.163Z,3.20
2018-03-07T10:02:24.747Z,3.10
2018-03-07T10:04:52.382Z,3.20
2018-03-07T10:07:19.963Z,3.10
2018-03-07T10:09:47.546Z,3.20
2018-03-07T10:12:15.126Z,3.00
2018-03-07T10:14:43.480Z,2.90
2018-03-07T10:17:11.068Z,2.80
2018-03-07T10:19:39.420Z,3.00
2018-03-07T10:22:07.007Z,3.00
2018-03-07T10:24:35.355Z,3.40
2018-03-07T10:27:02.934Z,3.30
2018-03-07T10:29:30.515Z,3.40
2018-03-07T10:31:58.875Z,3.60
2018-03-07T10:34:26.454Z,3.60
2018-03-07T10:36:54.041Z,3.70
2018-03-07T10:39:22.391Z,3.80
2018-03-07T10:41:49.971Z,3.80
2018-03-07T10:44:17.551Z,3.80
2018-03-07T10:46:45.945Z,3.90
2018-03-07T10:49:13.527Z,3.80
2018-03-07T10:51:41.111Z,3.70
2018-03-07T10:54:08.743Z,3.70
2018-03-07T10:56:36.320Z,3.70
2018-03-07T10:59:04.827Z,3.80
2018-03-07T11:01:33.175Z,3.70
2018-03-07T11:04:00.759Z,3.70
2018-03-07T11:06:28.342Z,3.60
2018-03-07T11:08:55.925Z,3.40
2018-03-07T11:11:23.506Z,3.30
2018-03-07T11:13:51.862Z,3.00
2018-03-07T11:16:20.247Z,3.00
2018-03-07T11:18:47.826Z,3.00
2018-03-07T11:21:15.419Z,3.50
2018-03-07T11:23:43.762Z,3.50
2018-03-07T11:26:11.392Z,3.40
2018-03-07T11:28:38.974Z,3.80
2018-03-07T11:31:06.550Z,3.80
2018-03-07T11:33:34.135Z,3.40
2018-03-07T11:36:01.728Z,3.50
2018-03-07T11:38:29.312Z,3.70
2018-03-07T11:40:56.899Z,3.50
2018-03-07T11:43:24.506Z,3.60
2018-03-07T11:45:52.850Z,3.70
2018-03-07T11:48:20.431Z,3.60
2018-03-07T11:50:48.011Z,3.50
2018-03-07T11:53:15.592Z,3.40
2018-03-07T11:55:43.935Z,4.00
2018-03-07T11:58:12.287Z,4.00
2018-03-07T12:00:39.875Z,3.90
2018-03-07T12:03:07.455Z,3.90
2018-03-07T12:05:35.034Z,3.70
2018-03-07T12:08:03.465Z,3.60
2018-03-07T12:10:31.047Z,3.50
2018-03-07T12:12:58.627Z,3.60
2018-03-07T12:15:26.210Z,3.60
2018-03-07T12:17:53.795Z,3.50
2018-03-07T12:20:22.147Z,3.40
2018-03-07T12:22:49.730Z,3.30
2018-03-07T12:25:18.083Z,3.10
2018-03-07T12:27:45.686Z,3.10
2018-03-07T12:30:14.031Z,3.10
2018-03-07T12:32:41.614Z,3.00
2018-03-07T12:35:09.199Z,3.20
2018-03-07T12:37:37.551Z,3.00
2018-03-07T12:40:05.138Z,3.00
2018-03-07T12:42:33.483Z,2.80
2018-03-07T12:45:01.067Z,2.70
2018-03-07T12:47:28.651Z,2.80
2018-03-07T12:49:57.003Z,2.70
2018-03-07T12:52:24.586Z,2.60
2018-03-07T12:54:52.184Z,2.70
2018-03-07T12:57:19.775Z,2.70
2018-03-07T12:59:47.360Z,2.70
2018-03-07T13:02:14.949Z,2.70
2018-03-07T13:04:43.300Z,2.60
2018-03-07T13:07:10.879Z,2.60
2018-03-07T13:09:38.506Z,2.60
2018-03-07T13:12:06.086Z,2.70
2018-03-07T13:14:33.671Z,2.60
2018-03-07T13:17:01.259Z,2.60
2018-03-07T13:19:29.614Z,2.60
2018-03-07T13:21:57.199Z,2.60
2018-03-07T13:24:24.797Z,2.60
2018-03-07T13:26:52.383Z,2.60
2018-03-07T13:29:19.967Z,2.60
2018-03-07T13:31:47.555Z,2.60
2018-03-07T13:34:15.203Z,2.70
2018-03-07T13:36:42.790Z,2.70
2018-03-07T13:39:11.147Z,2.60
2018-03-07T13:41:38.748Z,2.50
2018-03-07T13:44:07.104Z,2.70
2018-03-07T13:46:34.694Z,2.70
2018-03-07T13:49:03.043Z,2.80
2018-03-07T13:51:30.627Z,2.70
2018-03-07T13:53:58.218Z,2.80
2018-03-07T13:56:25.833Z,2.70
2018-03-07T13:58:53.421Z,2.70
2018-03-07T14:01:21.006Z,2.70
2018-03-07T14:03:49.357Z,2.60
2018-03-07T14:06:16.967Z,2.60
2018-03-07T14:08:44.652Z,2.50
2018-03-07T14:11:12.243Z,2.50
2018-03-07T14:13:39.832Z,2.50
2018-03-07T14:16:07.418Z,2.60
2018-03-07T14:18:35.798Z,2.60
2018-03-07T14:21:04.156Z,2.70
2018-03-07T14:23:31.743Z,2.60
2018-03-07T14:26:00.096Z,2.70
2018-03-07T14:28:27.688Z,2.60
2018-03-07T14:30:56.039Z,2.60
2018-03-07T14:33:23.619Z,2.60
2018-03-07T14:35:51.203Z,2.60
2018-03-07T14:38:19.547Z,2.50
2018-03-07T14:40:47.130Z,2.50
2018-03-07T14:43:14.712Z,2.50
2018-03-07T14:45:43.058Z,2.60
2018-03-07T14:48:10.647Z,2.50
2018-03-07T14:50:38.995Z,2.50
2018-03-07T14:53:06.719Z,2.50
2018-03-07T14:55:34.308Z,2.40
2018-03-07T14:58:01.901Z,2.40
2018-03-07T15:00:29.529Z,2.40
2018-03-07T15:25:59.282Z,2.40
2018-03-07T15:28:27.632Z,2.40
2018-03-07T15:30:55.219Z,2.30
2018-03-07T15:33:23.570Z,2.40
2018-03-07T15:35:51.160Z,2.40
2018-03-07T15:38:19.753Z,2.50
2018-03-07T15:40:48.552Z,2.60
2018-03-07T15:43:16.174Z,2.50
2018-03-07T15:45:44.086Z,2.60
2018-03-07T15:48:11.732Z,2.60
2018-03-07T15:50:39.320Z,2.60
2018-03-07T15:53:07.676Z,2.60
2018-03-07T15:55:35.275Z,2.50
2018-03-07T15:58:02.890Z,2.60
2018-03-07T16:00:30.484Z,2.50
2018-03-07T16:02:58.066Z,2.50
2018-03-07T16:05:26.463Z,2.40
2018-03-07T16:07:54.073Z,2.40
2018-03-07T16:10:21.659Z,2.50
2018-03-07T16:12:49.242Z,2.40
2018-03-07T16:15:16.862Z,2.40
2018-03-07T16:17:44.446Z,2.40
2018-03-07T16:20:12.074Z,2.40
2018-03-07T16:22:39.658Z,2.30
2018-03-07T16:25:07.291Z,2.40
2018-03-07T16:27:34.888Z,2.50
2018-03-07T16:30:02.467Z,2.40
2018-03-07T16:32:30.071Z,2.40
2018-03-07T16:34:57.679Z,2.30
2018-03-07T16:37:25.262Z,2.20
2018-03-07T16:39:52.847Z,2.10
2018-03-07T16:42:21.216Z,2.20
2018-03-07T16:44:48.805Z,2.10
2018-03-07T16:47:17.202Z,2.00
2018-03-07T16:49:44.816Z,2.00
2018-03-07T16:52:12.412Z,2.00
2018-03-07T16:54:40.802Z,1.90
2018-03-07T16:57:09.156Z,1.90
2018-03-07T16:59:36.748Z,1.90
2018-03-07T17:02:05.122Z,1.90
2018-03-07T17:04:33.479Z,1.90
2018-03-07T17:07:01.108Z,1.90
2018-03-07T17:09:28.696Z,1.90
2018-03-07T17:11:56.279Z,1.90
2018-03-07T17:14:23.866Z,1.90
2018-03-07T17:16:52.215Z,1.90
2018-03-07T17:19:19.807Z,1.90
2018-03-07T17:21:48.160Z,1.70
2018-03-07T17:24:15.745Z,1.70
2018-03-07T17:26:43.342Z,1.70
2018-03-07T17:29:10.927Z,1.60
2018-03-07T17:31:38.517Z,1.60
2018-03-07T17:34:06.102Z,1.60
2018-03-07T17:36:33.689Z,1.70
2018-03-07T17:39:02.047Z,1.80
2018-03-07T17:41:29.639Z,1.80
2018-03-07T17:43:57.992Z,1.80
2018-03-07T17:46:25.599Z,1.70
2018-03-07T17:48:53.193Z,1.80
2018-03-07T17:51:20.779Z,1.80
2018-03-07T17:53:48.363Z,1.90
2018-03-07T17:56:15.945Z,2.10
2018-03-07T17:58:44.294Z,2.30
2018-03-07T18:01:12.135Z,2.30
2018-03-07T18:03:39.767Z,2.30
2018-03-07T18:06:08.124Z,2.50
2018-03-07T18:08:35.707Z,2.50
2018-03-07T18:11:04.059Z,2.50
2018-03-07T18:13:31.684Z,2.50
2018-03-07T18:15:59.266Z,2.40
2018-03-07T18:18:26.863Z,2.50
2018-03-07T18:20:54.457Z,2.50
2018-03-07T18:23:22.048Z,2.50
2018-03-07T18:25:49.674Z,2.40
2018-03-07T18:28:18.031Z,2.60
2018-03-07T18:30:45.662Z,2.50
2018-03-07T18:33:13.262Z,2.50
2018-03-07T18:35:40.852Z,2.30
2018-03-07T18:38:09.206Z,2.30
2018-03-07T18:40:36.799Z,2.30
2018-03-07T18:43:05.153Z,2.40
2018-03-07T18:45:32.738Z,2.40
2018-03-07T18:48:00.326Z,2.40
2018-03-07T18:50:28.670Z,2.30
2018-03-07T18:52:56.282Z,2.20
2018-03-07T18:55:23.867Z,2.30
2018-03-07T18:57:51.455Z,2.20
2018-03-07T19:00:19.044Z,2.20
2018-03-07T19:02:46.634Z,2.40
2018-03-07T19:05:14.210Z,2.60
2018-03-07T19:07:41.797Z,2.50
2018-03-07T19:10:09.410Z,2.40
2018-03-07T19:12:37.837Z,2.40
2018-03-07T19:15:07.345Z,2.30
2018-03-07T19:17:34.927Z,2.40
2018-03-07T19:20:02.526Z,2.40
2018-03-07T19:22:30.111Z,2.40
2018-03-07T19:24:57.727Z,2.50
2018-03-07T19:27:25.373Z,2.60
2018-03-07T19:29:52.950Z,2.60
2018-03-07T19:32:20.533Z,2.70
2018-03-07T19:34:48.116Z,2.80
2018-03-07T19:37:15.695Z,2.80
2018-03-07T19:39:44.044Z,2.80
2018-03-07T19:42:11.622Z,2.70
2018-03-07T19:44:39.209Z,2.80
2018-03-07T19:47:07.626Z,2.80
2018-03-07T19:49:35.219Z,2.70
2018-03-07T19:52:02.798Z,2.70
2018-03-07T19:54:30.393Z,2.80
2018-03-07T19:56:57.972Z,2.80
2018-03-07T19:59:25.551Z,2.60
2018-03-07T20:01:53.135Z,2.60
2018-03-07T20:04:20.742Z,2.40
2018-03-07T20:06:49.142Z,2.40
2018-03-07T20:09:16.727Z,2.30
2018-03-07T20:11:44.311Z,2.30
2018-03-07T20:14:11.915Z,2.20
2018-03-07T20:16:40.266Z,2.10
2018-03-07T20:19:07.851Z,2.10
2018-03-07T20:21:35.430Z,2.20
2018-03-07T20:24:03.834Z,2.40
2018-03-07T20:26:31.417Z,2.40
2018-03-07T20:28:59.992Z,2.40
2018-03-07T20:31:27.575Z,2.30
2018-03-07T20:33:55.174Z,2.30
2018-03-07T20:36:22.761Z,2.40
2018-03-07T20:38:53.144Z,2.60
2018-03-07T20:41:21.635Z,2.60
2018-03-07T20:43:49.215Z,2.60
2018-03-07T20:46:16.795Z,2.40
2018-03-07T20:48:45.138Z,2.20
2018-03-07T20:51:12.770Z,2.20
2018-03-07T20:53:40.350Z,2.20
2018-03-07T20:56:07.938Z,2.30
2018-03-07T20:58:35.569Z,2.20
2018-03-07T21:01:03.168Z,2.20
2018-03-07T21:03:30.758Z,2.30
2018-03-07T21:05:58.338Z,2.10
2018-03-07T21:08:26.682Z,2.10
2018-03-07T21:10:54.263Z,2.10
2018-03-07T21:13:21.886Z,2.30
2018-03-07T21:15:49.487Z,2.30
2018-03-07T21:18:17.144Z,2.20
2018-03-07T21:20:44.747Z,2.30
2018-03-07T21:23:13.098Z,2.30
2018-03-07T21:25:40.690Z,2.30
2018-03-07T21:28:09.030Z,2.70
2018-03-07T21:30:36.611Z,2.60
2018-03-07T21:33:04.198Z,2.80
2018-03-07T21:35:32.631Z,2.80
2018-03-07T21:38:00.214Z,2.80
2018-03-07T21:40:27.801Z,2.90
2018-03-07T21:42:55.436Z,2.90
2018-03-07T21:45:23.018Z,3.00
2018-03-07T21:47:50.619Z,2.90
2018-03-07T21:50:19.034Z,2.80
2018-03-07T21:52:46.622Z,2.80
2018-03-07T21:55:14.199Z,2.90
2018-03-07T21:57:41.835Z,2.90
2018-03-07T22:00:09.429Z,2.80
2018-03-07T22:02:37.035Z,2.70
2018-03-07T22:05:04.686Z,2.70
2018-03-07T22:07:33.038Z,2.50
2018-03-07T22:10:00.631Z,2.50
2018-03-07T22:12:28.982Z,2.20
2018-03-07T22:14:56.620Z,2.20
2018-03-07T22:17:24.203Z,2.20
2018-03-07T22:19:51.807Z,2.10
2018-03-07T22:22:20.163Z,2.30
2018-03-07T22:24:47.798Z,2.20
2018-03-07T22:27:15.377Z,2.30
2018-03-07T22:29:43.003Z,2.30
2018-03-07T22:32:10.592Z,2.30
2018-03-07T22:34:38.185Z,2.40
2018-03-07T22:37:05.762Z,2.40
2018-03-07T22:39:33.338Z,2.30
2018-03-07T22:42:00.923Z,2.30
2018-03-07T22:44:29.267Z,2.20
2018-03-07T22:46:56.847Z,2.20
2018-03-07T22:49:24.426Z,2.20
2018-03-07T22:51:52.766Z,2.10
2018-03-07T22:54:20.346Z,2.00
2018-03-07T22:56:47.973Z,2.00
2018-03-07T22:59:15.543Z,2.00
2018-03-07T23:01:43.129Z,2.00
2018-03-07T23:04:10.710Z,2.00
2018-03-07T23:06:38.298Z,2.00
2018-03-07T23:09:06.643Z,2.20
2018-03-07T23:11:34.283Z,2.20
2018-03-07T23:14:01.839Z,2.10
2018-03-07T23:16:29.420Z,2.10
2018-03-07T23:18:56.999Z,2.00
2018-03-07T23:21:24.632Z,2.10
2018-03-07T23:23:52.210Z,2.00
2018-03-07T23:26:19.786Z,1.80
2018-03-07T23:28:47.366Z,1.70
2018-03-07T23:31:14.951Z,1.90
2018-03-07T23:33:42.531Z,1.90
2018-03-07T23:36:10.883Z,1.90
2018-03-07T23:38:38.466Z,1.80
2018-03-07T23:41:06.814Z,1.50
2018-03-07T23:43:34.399Z,1.50
2018-03-07T23:46:01.983Z,1.50
2018-03-07T23:48:30.330Z,1.30
2018-03-07T23:50:57.910Z,1.30
2018-03-07T23:53:25.498Z,1.30
2018-03-07T23:55:53.842Z,1.10
2018-03-07T23:58:21.464Z,1.10
